createdAt,value
2023-04-01T00:01:53.021Z,95.40
2023-04-01T00:13:55.646Z,76.70
2023-04-01T00:26:04.637Z,81.60
2023-04-01T00:37:59.489Z,78.50
2023-04-01T00:58:10.367Z,99.80
2023-04-01T01:03:14.482Z,85.20
2023-04-01T01:23:09.858Z,81.10
2023-04-01T01:28:27.337Z,71.20
2023-04-01T01:33:54.982Z,63.50
2023-04-01T01:39:00.598Z,59.00
2023-04-01T01:52:41.040Z,58.40
2023-04-01T02:05:26.287Z,68.80
2023-04-01T02:10:38.160Z,60.40
2023-04-01T02:37:06.162Z,63.30
2023-04-01T02:42:11.855Z,66.50
2023-04-01T02:51:41.548Z,71.20
2023-04-01T03:03:48.787Z,57.30
2023-04-01T03:08:52.601Z,56.60
2023-04-01T03:21:43.589Z,48.10
2023-04-01T03:31:51.284Z,45.10
2023-04-01T03:59:55.489Z,35.20
2023-04-01T04:04:59.331Z,46.00
2023-04-01T04:10:03.781Z,44.90
2023-04-01T04:40:25.809Z,38.90
2023-04-01T04:46:12.088Z,36.50
2023-04-01T05:01:49.071Z,43.50
2023-04-01T05:06:53.224Z,42.30
2023-04-01T05:12:18.943Z,29.20
2023-04-01T05:25:10.414Z,15.70
2023-04-01T05:30:25.288Z,15.30
2023-04-01T05:35:33.044Z,23.50
2023-04-01T05:40:39.796Z,7.90
2023-04-01T05:46:09.142Z,11.50
2023-04-01T05:51:23.268Z,9.40
2023-04-01T05:56:32.536Z,7.60
2023-04-01T06:02:29.442Z,13.70
2023-04-01T06:08:11.597Z,19.90
2023-04-01T06:14:09.716Z,6.80
2023-04-01T06:20:16.556Z,8.60
2023-04-01T06:25:33.547Z,10.40
2023-04-01T06:31:42.860Z,18.10
2023-04-01T06:37:07.677Z,15.60
2023-04-01T06:42:42.246Z,36.30
2023-04-01T06:48:07.644Z,129.50
2023-04-01T06:53:37.584Z,75.40
2023-04-01T06:59:14.716Z,30.30
2023-04-01T07:04:25.245Z,16.20
2023-04-01T07:09:49.885Z,27.30
2023-04-01T07:14:57.554Z,19.20
2023-04-01T07:20:18.862Z,32.90
2023-04-01T07:25:27.582Z,47.40
2023-04-01T07:30:54.199Z,67.00
2023-04-01T07:36:15.604Z,58.80
2023-04-01T07:41:36.028Z,126.10
2023-04-01T07:47:21.553Z,110.20
2023-04-01T07:52:35.972Z,212.40
2023-04-01T07:58:40.432Z,217.80
2023-04-01T08:18:23.992Z,120.00
2023-04-01T08:23:57.710Z,135.40
2023-04-01T08:37:30.814Z,239.70
2023-04-01T08:53:38.167Z,143.80
2023-04-01T08:59:12.967Z,104.60
2023-04-01T09:04:55.066Z,58.90
2023-04-01T09:10:26.229Z,73.50
2023-04-01T09:30:47.675Z,114.50
2023-04-01T09:37:12.157Z,108.10
2023-04-01T09:43:37.413Z,90.20
2023-04-01T09:49:35.007Z,62.80
2023-04-01T09:55:01.463Z,49.90
2023-04-01T10:01:02.778Z,45.20
2023-04-01T10:06:29.527Z,36.90
2023-04-01T10:12:16.019Z,48.00
2023-04-01T10:18:06.837Z,24.60
2023-04-01T10:24:11.732Z,47.00
2023-04-01T10:29:47.085Z,39.90
2023-04-01T10:43:06.311Z,83.40
2023-04-01T10:49:10.986Z,46.90
2023-04-01T10:55:00.879Z,57.90
2023-04-01T11:00:46.004Z,87.90
2023-04-01T11:06:30.348Z,75.30
2023-04-01T11:12:00.706Z,153.60
2023-04-01T11:17:32.518Z,101.70
2023-04-01T11:23:23.324Z,77.40
2023-04-01T11:28:35.325Z,88.40
2023-04-01T11:34:19.600Z,79.40
2023-04-01T11:39:52.119Z,73.00
2023-04-01T11:45:19.426Z,53.60
2023-04-01T11:51:04.678Z,106.10
2023-04-01T11:56:52.753Z,116.90
2023-04-01T12:02:26.210Z,82.40
2023-04-01T12:08:06.184Z,271.00
2023-04-01T12:14:01.280Z,419.30
2023-04-01T12:19:25.228Z,173.90
2023-04-01T12:25:16.327Z,73.50
2023-04-01T12:30:46.231Z,78.60
2023-04-01T12:36:42.125Z,65.70
2023-04-01T12:42:22.156Z,77.90
2023-04-01T12:48:15.345Z,79.40
2023-04-01T12:54:14.223Z,72.90
2023-04-01T12:59:59.762Z,56.50
2023-04-01T13:05:26.611Z,53.20
2023-04-01T13:11:04.805Z,96.60
2023-04-01T13:16:40.751Z,70.90
2023-04-01T13:22:11.887Z,52.90
2023-04-01T13:27:42.036Z,41.80
2023-04-01T13:33:28.720Z,45.50
2023-04-01T13:38:55.100Z,83.10
2023-04-01T13:44:11.343Z,67.60
2023-04-01T13:49:58.485Z,59.10
2023-04-01T13:55:24.163Z,97.30
2023-04-01T14:01:09.297Z,100.40
2023-04-01T14:06:47.575Z,135.20
2023-04-01T14:12:30.183Z,250.80
2023-04-01T14:17:58.206Z,167.20
2023-04-01T14:23:36.926Z,151.20
2023-04-01T14:29:11.628Z,133.40
2023-04-01T14:35:07.939Z,143.10
2023-04-01T14:41:07.571Z,81.60
2023-04-01T14:47:04.564Z,156.40
2023-04-01T14:52:33.272Z,95.20
2023-04-01T14:57:36.884Z,115.30
2023-04-01T15:03:40.268Z,99.50
2023-04-01T15:17:46.799Z,53.90
2023-04-01T15:23:48.187Z,240.70
2023-04-01T15:35:40.158Z,141.90
2023-04-01T15:41:07.721Z,67.70
2023-04-01T15:46:42.612Z,60.90
2023-04-01T15:52:30.229Z,152.90
2023-04-01T15:58:22.189Z,110.20
2023-04-01T16:03:48.053Z,133.30
2023-04-01T16:09:15.924Z,99.10
2023-04-01T16:14:48.593Z,111.70
2023-04-01T16:20:41.141Z,91.00
2023-04-01T16:26:14.502Z,84.30
2023-04-01T16:31:26.652Z,428.50
2023-04-01T16:43:49.965Z,721.60
2023-04-01T16:49:43.591Z,1366.60
2023-04-01T16:55:10.313Z,1108.40
2023-04-01T17:00:39.644Z,1116.50
2023-04-01T17:05:56.986Z,1094.30
2023-04-01T17:11:24.063Z,1063.00
2023-04-01T17:16:49.376Z,893.90
2023-04-01T17:23:18.586Z,963.40
2023-04-01T17:28:54.890Z,649.00
2023-04-01T17:34:04.720Z,717.20
2023-04-01T17:39:32.086Z,418.00
2023-04-01T17:45:21.888Z,508.70
2023-04-01T17:50:48.984Z,528.30
2023-04-01T17:56:16.141Z,519.70
2023-04-01T18:01:41.672Z,412.40
2023-04-01T18:07:11.851Z,276.10
2023-04-01T18:13:04.245Z,151.00
2023-04-01T18:18:33.496Z,89.30
2023-04-01T18:33:56.325Z,59.30
2023-04-01T18:49:22.530Z,102.20
2023-04-01T18:55:29.978Z,35.10
2023-04-01T19:00:54.690Z,50.60
2023-04-01T19:06:10.258Z,101.10
2023-04-01T19:11:33.052Z,60.60
2023-04-01T19:17:09.416Z,32.10
2023-04-01T19:22:56.258Z,70.00
2023-04-01T19:28:42.194Z,72.20
2023-04-01T19:48:39.829Z,29.60
2023-04-01T19:54:04.853Z,46.10
2023-04-01T19:59:31.734Z,368.00
2023-04-01T20:04:43.838Z,167.60
2023-04-01T20:10:05.003Z,83.90
2023-04-01T20:15:35.557Z,159.80
2023-04-01T20:20:41.429Z,90.10
2023-04-01T20:25:54.270Z,134.60
2023-04-01T20:31:15.105Z,69.10
2023-04-01T20:36:57.045Z,45.90
2023-04-01T20:42:50.124Z,71.30
2023-04-01T20:48:37.774Z,40.30
2023-04-01T20:54:06.976Z,39.10
2023-04-01T20:59:29.501Z,42.80
2023-04-01T21:05:43.100Z,92.20
2023-04-01T21:10:58.439Z,51.90
2023-04-01T21:16:56.705Z,46.80
2023-04-01T21:22:31.417Z,27.50
2023-04-01T21:27:37.851Z,81.20
2023-04-01T21:33:16.810Z,40.20
2023-04-01T21:39:06.486Z,19.30
2023-04-01T21:44:42.657Z,53.60
2023-04-01T21:50:31.009Z,20.30
2023-04-01T22:31:05.165Z,9.40
2023-04-01T22:40:40.087Z,11.30
2023-04-01T22:46:24.918Z,4.10
2023-04-01T23:06:49.735Z,4.70
2023-04-01T23:12:22.196Z,5.70
2023-04-01T23:18:09.721Z,4.60
2023-04-01T23:23:33.525Z,4.90
2023-04-01T23:50:27.083Z,13.40
2023-04-01T23:55:36.123Z,9.70
